createdAt,value
2018-11-21T00:00:23.213Z,28.23
2018-11-21T00:02:51.282Z,29.05
2018-11-21T00:05:19.779Z,30.32
2018-11-21T00:07:47.888Z,28.95
2018-11-21T00:10:16.002Z,30.95
2018-11-21T00:12:47.222Z,30.72
2018-11-21T00:15:15.363Z,29.60
2018-11-21T00:17:43.449Z,31.33
2018-11-21T00:20:11.570Z,32.50
2018-11-21T00:22:40.300Z,32.83
2018-11-21T00:25:08.627Z,32.90
2018-11-21T00:27:36.976Z,29.55
2018-11-21T00:30:07.990Z,28.45
2018-11-21T00:32:36.053Z,29.95
2018-11-21T00:35:05.315Z,31.62
2018-11-21T00:37:37.781Z,33.92
2018-11-21T00:40:10.642Z,30.40
2018-11-21T00:42:39.018Z,30.00
2018-11-21T00:45:08.063Z,30.17
2018-11-21T00:47:36.127Z,34.65
2018-11-21T00:50:04.720Z,32.42
2018-11-21T00:52:33.069Z,30.70
2018-11-21T00:55:01.171Z,34.63
2018-11-21T00:57:29.497Z,32.63
2018-11-21T00:59:58.154Z,30.05
2018-11-21T01:02:26.242Z,33.90
2018-11-21T01:04:54.457Z,29.95
2018-11-21T01:07:22.863Z,33.35
2018-11-21T01:09:50.952Z,33.00
2018-11-21T01:12:19.082Z,30.40
2018-11-21T01:14:47.464Z,32.95
2018-11-21T01:17:15.837Z,31.00
2018-11-21T01:19:43.935Z,35.80
2018-11-21T01:22:12.024Z,33.80
2018-11-21T01:24:40.149Z,32.42
2018-11-21T01:27:09.049Z,31.95
2018-11-21T01:29:37.160Z,35.38
2018-11-21T01:32:05.236Z,32.08
2018-11-21T01:34:33.339Z,34.95
2018-11-21T01:37:01.414Z,33.28
2018-11-21T01:39:29.816Z,31.35
2018-11-21T01:41:57.894Z,32.33
2018-11-21T01:44:26.269Z,31.20
2018-11-21T01:46:54.342Z,29.00
2018-11-21T01:49:22.439Z,33.20
2018-11-21T01:51:50.498Z,29.35
2018-11-21T01:54:18.569Z,33.10
2018-11-21T01:56:46.669Z,34.67
2018-11-21T01:59:14.866Z,30.97
2018-11-21T02:01:42.957Z,32.63
2018-11-21T02:04:11.046Z,33.55
2018-11-21T02:06:39.552Z,34.20
2018-11-21T02:09:09.357Z,32.70
2018-11-21T02:11:37.515Z,32.28
2018-11-21T02:14:05.872Z,33.30
2018-11-21T02:16:33.958Z,31.15
2018-11-21T02:19:02.111Z,31.62
2018-11-21T02:21:31.169Z,34.25
2018-11-21T02:23:59.303Z,32.80
2018-11-21T02:26:27.628Z,29.87
2018-11-21T02:28:55.734Z,30.68
2018-11-21T02:31:24.154Z,31.82
2018-11-21T02:33:52.230Z,31.52
2018-11-21T02:36:20.326Z,30.05
2018-11-21T02:38:48.417Z,33.10
2018-11-21T02:41:16.507Z,36.55
2018-11-21T02:43:44.574Z,29.00
2018-11-21T02:46:12.663Z,31.73
2018-11-21T02:48:40.789Z,28.42
2018-11-21T02:51:08.891Z,29.87
2018-11-21T02:53:37.062Z,31.23
2018-11-21T02:56:05.189Z,32.15
2018-11-21T02:58:33.515Z,31.48
2018-11-21T03:01:01.907Z,30.05
2018-11-21T03:03:30.905Z,32.03
2018-11-21T03:05:59.062Z,33.35
2018-11-21T03:08:28.526Z,30.70
2018-11-21T03:10:56.600Z,30.27
2018-11-21T03:13:28.346Z,31.37
2018-11-21T03:15:52.816Z,33.83
2018-11-21T03:18:20.888Z,30.43
2018-11-21T03:20:48.949Z,34.27
2018-11-21T03:23:17.027Z,33.08
2018-11-21T03:25:45.102Z,33.00
2018-11-21T03:28:13.466Z,34.73
2018-11-21T03:30:41.530Z,31.87
2018-11-21T03:33:09.611Z,31.30
2018-11-21T03:35:38.152Z,35.17
2018-11-21T03:38:06.205Z,32.00
2018-11-21T03:40:34.338Z,33.55
2018-11-21T03:43:02.453Z,34.05
2018-11-21T03:45:30.583Z,35.30
2018-11-21T03:47:58.723Z,32.33
2018-11-21T03:50:26.929Z,34.15
2018-11-21T03:52:55.350Z,32.63
2018-11-21T03:55:23.604Z,31.97
2018-11-21T03:57:51.815Z,30.70
2018-11-21T04:00:19.994Z,36.65
2018-11-21T04:02:48.334Z,36.05
2018-11-21T04:05:16.698Z,32.42
2018-11-21T04:07:44.937Z,34.00
2018-11-21T04:10:13.901Z,31.62
2018-11-21T04:12:42.356Z,34.30
2018-11-21T04:15:12.323Z,32.05
2018-11-21T04:17:40.520Z,32.53
2018-11-21T04:20:08.959Z,33.75
2018-11-21T04:22:37.727Z,30.65
2018-11-21T04:25:07.533Z,30.70
2018-11-21T04:27:35.849Z,33.45
2018-11-21T04:30:04.705Z,27.70
2018-11-21T04:32:32.958Z,33.38
2018-11-21T04:35:01.277Z,33.50
2018-11-21T04:37:29.588Z,35.58
2018-11-21T04:39:57.794Z,32.73
2018-11-21T04:42:26.019Z,33.73
2018-11-21T04:44:54.406Z,33.35
2018-11-21T04:47:22.661Z,29.57
2018-11-21T04:49:51.032Z,33.05
2018-11-21T04:52:19.682Z,36.60
2018-11-21T04:54:48.861Z,33.60
2018-11-21T04:57:17.505Z,30.37
2018-11-21T04:59:48.618Z,34.33
2018-11-21T05:02:17.643Z,32.28
2018-11-21T05:04:46.045Z,37.40
2018-11-21T05:07:14.689Z,31.87
2018-11-21T05:09:43.425Z,32.98
2018-11-21T05:12:11.995Z,32.23
2018-11-21T05:14:40.215Z,30.08
2018-11-21T05:17:08.665Z,34.75
2018-11-21T05:19:37.259Z,34.48
2018-11-21T05:22:05.692Z,32.78
2018-11-21T05:24:34.261Z,30.60
2018-11-21T05:27:02.759Z,32.53
2018-11-21T05:29:31.724Z,32.45
2018-11-21T05:32:00.384Z,32.80
2018-11-21T05:34:28.579Z,33.40
2018-11-21T05:36:57.351Z,33.90
2018-11-21T05:39:26.250Z,35.40
2018-11-21T05:41:54.717Z,31.85
2018-11-21T05:44:23.126Z,31.95
2018-11-21T05:46:53.758Z,28.17
2018-11-21T05:49:20.613Z,34.70
2018-11-21T05:51:49.133Z,33.53
2018-11-21T05:54:17.703Z,32.25
2018-11-21T05:56:46.115Z,32.63
2018-11-21T05:59:14.635Z,35.30
2018-11-21T06:01:43.262Z,32.20
2018-11-21T06:04:11.420Z,32.90
2018-11-21T06:06:59.057Z,33.18
2018-11-21T06:09:27.244Z,37.48
2018-11-21T06:11:56.103Z,35.85
2018-11-21T06:14:24.360Z,34.90
2018-11-21T06:16:53.090Z,32.70
2018-11-21T06:19:21.229Z,33.20
2018-11-21T06:21:49.405Z,37.13
2018-11-21T06:24:18.169Z,34.40
2018-11-21T06:26:53.793Z,33.25
2018-11-21T06:29:22.550Z,39.40
2018-11-21T06:31:51.028Z,35.28
2018-11-21T06:34:20.317Z,31.23
2018-11-21T06:36:48.581Z,33.13
2018-11-21T06:39:18.196Z,34.30
2018-11-21T06:41:46.754Z,34.43
2018-11-21T06:44:15.034Z,35.08
2018-11-21T06:46:43.742Z,33.10
2018-11-21T06:49:13.595Z,33.73
2018-11-21T06:51:45.618Z,30.62
2018-11-21T06:54:14.504Z,33.33
2018-11-21T06:56:42.988Z,30.02
2018-11-21T06:59:11.595Z,36.50
2018-11-21T07:01:40.626Z,29.15
2018-11-21T07:04:09.055Z,37.05
2018-11-21T07:06:37.237Z,31.05
2018-11-21T07:09:09.308Z,32.65
2018-11-21T07:11:37.903Z,37.42
2018-11-21T07:14:07.422Z,33.13
2018-11-21T07:16:37.306Z,34.30
2018-11-21T07:19:11.898Z,31.07
2018-11-21T07:21:40.187Z,33.02
2018-11-21T07:24:08.852Z,31.87
2018-11-21T07:26:37.638Z,33.28
2018-11-21T07:29:06.269Z,35.83
2018-11-21T07:31:34.901Z,32.25
2018-11-21T07:34:03.315Z,30.55
2018-11-21T07:36:32.243Z,34.00
2018-11-21T07:39:00.385Z,32.83
2018-11-21T07:41:29.227Z,29.75
2018-11-21T07:43:57.680Z,36.23
2018-11-21T07:46:26.085Z,32.15
2018-11-21T07:48:54.316Z,33.13
2018-11-21T07:51:22.456Z,32.70
2018-11-21T07:53:50.526Z,36.23
2018-11-21T07:57:06.710Z,31.62
2018-11-21T07:59:34.821Z,35.10
2018-11-21T08:02:09.513Z,31.17
2018-11-21T08:05:00.025Z,32.85
2018-11-21T08:07:46.253Z,31.73
2018-11-21T08:10:33.228Z,33.10
2018-11-21T08:13:24.704Z,30.75
2018-11-21T08:16:24.642Z,35.20
2018-11-21T08:19:05.020Z,32.30
2018-11-21T08:22:07.571Z,40.03
2018-11-21T08:24:53.461Z,33.15
2018-11-21T08:27:40.726Z,34.88
2018-11-21T08:30:09.365Z,33.60
2018-11-21T08:32:38.754Z,35.38
2018-11-21T08:35:07.977Z,33.95
2018-11-21T08:37:36.741Z,33.18
2018-11-21T08:40:06.270Z,31.77
2018-11-21T08:42:34.870Z,33.70
2018-11-21T08:45:03.328Z,31.05
2018-11-21T08:47:31.597Z,32.35
2018-11-21T08:49:59.858Z,31.33
2018-11-21T08:52:28.273Z,31.55
2018-11-21T08:54:56.319Z,30.17
2018-11-21T08:57:24.485Z,31.10
2018-11-21T08:59:52.937Z,35.25
2018-11-21T09:02:23.610Z,31.48
2018-11-21T09:04:52.436Z,33.55
2018-11-21T09:07:20.843Z,33.05
2018-11-21T09:09:49.155Z,29.92
2018-11-21T09:12:17.760Z,29.40
2018-11-21T09:14:46.706Z,34.53
2018-11-21T09:17:15.057Z,35.00
2018-11-21T09:19:43.580Z,32.35
2018-11-21T09:22:12.141Z,32.28
2018-11-21T09:24:40.540Z,33.20
2018-11-21T09:27:09.753Z,34.15
2018-11-21T09:29:38.447Z,31.68
2018-11-21T09:32:06.705Z,33.35
2018-11-21T09:34:35.142Z,34.18
2018-11-21T09:37:03.599Z,35.73
2018-11-21T09:39:32.576Z,37.63
2018-11-21T09:42:00.972Z,31.95
2018-11-21T09:44:29.439Z,34.03
2018-11-21T09:46:58.025Z,34.23
2018-11-21T09:49:26.380Z,33.55
2018-11-21T09:51:54.715Z,38.45
2018-11-21T09:54:23.332Z,39.35
2018-11-21T09:56:51.518Z,36.88
2018-11-21T09:59:19.895Z,32.83
2018-11-21T10:02:25.113Z,35.10
2018-11-21T10:04:53.294Z,32.70
2018-11-21T10:07:21.898Z,33.55
2018-11-21T10:09:51.287Z,33.83
2018-11-21T10:12:27.203Z,33.80
2018-11-21T10:14:55.739Z,32.95
2018-11-21T10:17:24.401Z,37.53
2018-11-21T10:19:52.848Z,36.70
2018-11-21T10:22:21.620Z,38.45
2018-11-21T10:24:49.767Z,33.83
2018-11-21T10:27:18.562Z,34.85
2018-11-21T10:29:47.174Z,33.53
2018-11-21T10:32:15.269Z,38.10
2018-11-21T10:34:43.481Z,30.48
2018-11-21T10:37:11.526Z,32.70
2018-11-21T10:39:39.600Z,34.88
2018-11-21T10:42:07.733Z,35.95
2018-11-21T10:44:35.769Z,35.25
2018-11-21T10:47:04.148Z,32.13
2018-11-21T10:49:32.526Z,35.15
2018-11-21T10:52:00.630Z,33.80
2018-11-21T10:54:28.957Z,37.90
2018-11-21T10:56:57.154Z,36.88
2018-11-21T10:59:25.394Z,36.58
2018-11-21T11:02:11.269Z,35.13
2018-11-21T11:04:54.559Z,33.35
2018-11-21T11:07:41.098Z,32.35
2018-11-21T11:10:31.196Z,33.40
2018-11-21T11:13:21.840Z,35.00
2018-11-21T11:16:07.806Z,32.33
2018-11-21T11:18:55.327Z,35.95
2018-11-21T11:21:43.254Z,35.45
2018-11-21T11:24:30.129Z,36.03
2018-11-21T11:27:16.185Z,34.55
2018-11-21T11:30:26.490Z,36.95
2018-11-21T11:33:13.798Z,36.13
2018-11-21T11:36:13.577Z,37.20
2018-11-21T11:39:13.283Z,34.30
2018-11-21T11:42:01.177Z,36.63
2018-11-21T11:44:51.821Z,33.30
2018-11-21T11:47:33.861Z,33.40
2018-11-21T11:50:10.284Z,32.60
2018-11-21T11:52:51.700Z,35.15
2018-11-21T11:55:41.739Z,37.88
2018-11-21T11:58:24.387Z,37.15
2018-11-21T12:01:10.568Z,37.30
2018-11-21T12:03:57.873Z,34.45
2018-11-21T12:06:38.572Z,34.63
2018-11-21T12:09:26.182Z,32.73
2018-11-21T12:12:25.601Z,32.85
2018-11-21T12:15:24.454Z,32.10
2018-11-21T12:18:30.287Z,33.10
2018-11-21T12:21:16.784Z,31.87
2018-11-21T12:24:04.336Z,31.48
2018-11-21T12:26:51.922Z,33.50
2018-11-21T12:29:37.822Z,34.70
2018-11-21T12:32:24.261Z,34.30
2018-11-21T12:35:06.313Z,33.28
2018-11-21T12:38:09.303Z,36.38
2018-11-21T12:40:44.849Z,32.53
2018-11-21T12:43:34.231Z,29.67
2018-11-21T12:46:24.512Z,36.05
2018-11-21T12:49:05.806Z,34.48
2018-11-21T12:51:45.549Z,30.30
2018-11-21T12:54:28.852Z,32.83
2018-11-21T12:57:14.923Z,32.15
2018-11-21T13:00:07.773Z,36.75
2018-11-21T13:02:48.134Z,36.03
2018-11-21T13:05:24.802Z,36.80
2018-11-21T13:08:18.261Z,34.92
2018-11-21T13:11:02.185Z,32.33
2018-11-21T13:13:48.121Z,36.70
2018-11-21T13:16:38.076Z,37.45
2018-11-21T13:19:37.599Z,31.12
2018-11-21T13:22:21.505Z,32.93
2018-11-21T13:25:07.408Z,35.68
2018-11-21T13:27:53.470Z,38.13
2018-11-21T13:30:46.948Z,35.23
2018-11-21T13:33:37.044Z,32.85
2018-11-21T13:36:10.233Z,35.08
2018-11-21T13:38:56.398Z,31.85
2018-11-21T13:41:42.359Z,36.25
2018-11-21T13:44:28.292Z,32.55
2018-11-21T13:47:15.884Z,36.35
2018-11-21T13:50:02.278Z,33.67
2018-11-21T13:52:48.555Z,34.70
2018-11-21T13:55:16.902Z,38.02
2018-11-21T13:57:45.017Z,38.25
2018-11-21T14:00:13.100Z,33.90
2018-11-21T14:02:41.751Z,37.25
2018-11-21T14:05:11.009Z,33.33
2018-11-21T14:07:39.124Z,37.25
2018-11-21T14:10:09.462Z,38.28
2018-11-21T14:12:37.767Z,36.35
2018-11-21T14:15:07.365Z,34.33
2018-11-21T14:17:35.461Z,35.88
2018-11-21T14:20:03.964Z,33.20
2018-11-21T14:22:32.052Z,35.60
2018-11-21T14:25:00.193Z,31.75
2018-11-21T14:27:28.857Z,36.25
2018-11-21T14:29:57.203Z,43.25
2018-11-21T14:32:25.438Z,38.45
2018-11-21T14:34:53.843Z,39.18
2018-11-21T14:37:22.026Z,34.67
2018-11-21T14:39:50.541Z,35.78
2018-11-21T14:42:18.796Z,35.45
2018-11-21T14:44:46.968Z,33.95
2018-11-21T14:47:15.895Z,34.75
2018-11-21T14:49:47.229Z,30.68
2018-11-21T14:52:15.478Z,32.65
2018-11-21T14:54:43.606Z,35.17
2018-11-21T14:57:12.016Z,32.85
2018-11-21T14:59:40.123Z,36.70
2018-11-21T15:02:08.369Z,34.10
2018-11-21T15:04:36.429Z,33.58
2018-11-21T15:07:04.662Z,36.53
2018-11-21T15:09:33.060Z,30.70
2018-11-21T15:12:01.166Z,32.83
2018-11-21T15:14:29.490Z,30.62
2018-11-21T15:16:57.628Z,32.48
2018-11-21T15:19:25.765Z,33.13
2018-11-21T15:21:54.129Z,30.40
2018-11-21T15:24:22.252Z,29.95
2018-11-21T15:26:50.794Z,31.37
2018-11-21T15:29:19.045Z,30.60
2018-11-21T15:31:47.420Z,31.87
2018-11-21T15:34:15.524Z,27.25
2018-11-21T15:36:43.606Z,30.77
2018-11-21T15:39:12.355Z,28.42
2018-11-21T15:41:40.805Z,29.75
2018-11-21T15:44:08.995Z,28.92
2018-11-21T15:46:37.111Z,27.07
2018-11-21T15:49:05.479Z,31.00
2018-11-21T15:51:33.596Z,33.53
2018-11-21T15:54:02.130Z,29.92
2018-11-21T15:56:30.302Z,30.50
2018-11-21T15:58:58.809Z,25.97
2018-11-21T16:01:26.988Z,28.55
2018-11-21T16:03:55.398Z,31.35
2018-11-21T16:06:23.594Z,27.70
2018-11-21T16:08:51.691Z,29.95
2018-11-21T16:11:19.775Z,28.47
2018-11-21T16:13:47.902Z,29.72
2018-11-21T16:16:16.064Z,29.55
2018-11-21T16:18:44.467Z,25.25
2018-11-21T16:21:12.578Z,28.85
2018-11-21T16:23:40.721Z,28.42
2018-11-21T16:26:08.840Z,29.25
2018-11-21T16:28:36.933Z,29.95
2018-11-21T16:31:05.682Z,27.02
2018-11-21T16:33:34.273Z,27.30
2018-11-21T16:36:02.391Z,26.50
2018-11-21T16:38:30.514Z,27.55
2018-11-21T16:40:58.831Z,27.25
2018-11-21T16:43:26.951Z,27.75
2018-11-21T16:45:56.728Z,27.22
2018-11-21T16:48:25.286Z,27.15
2018-11-21T16:50:53.465Z,28.00
2018-11-21T16:53:21.947Z,28.85
2018-11-21T16:55:50.072Z,25.40
2018-11-21T16:58:18.208Z,27.62
2018-11-21T17:00:46.332Z,25.62
2018-11-21T17:03:14.409Z,25.48
2018-11-21T17:05:42.527Z,24.70
2018-11-21T17:08:10.907Z,27.00
2018-11-21T17:10:38.981Z,27.67
2018-11-21T17:13:07.102Z,28.17
2018-11-21T17:15:35.837Z,28.45
2018-11-21T17:18:03.918Z,28.15
2018-11-21T17:20:34.142Z,26.90
2018-11-21T17:23:02.563Z,27.70
2018-11-21T17:25:36.082Z,27.30
2018-11-21T17:28:04.515Z,26.70
2018-11-21T17:30:32.696Z,26.17
2018-11-21T17:33:00.826Z,27.35
2018-11-21T17:35:28.936Z,26.82
2018-11-21T17:38:01.931Z,28.17
2018-11-21T17:40:28.610Z,24.02
2018-11-21T17:42:57.314Z,24.87
2018-11-21T17:45:25.484Z,25.10
2018-11-21T17:47:53.946Z,25.90
2018-11-21T17:50:23.270Z,28.23
2018-11-21T17:52:52.817Z,28.62
2018-11-21T17:57:51.135Z,29.25
2018-11-21T18:00:20.629Z,23.42
2018-11-21T18:02:49.160Z,24.67
2018-11-21T18:05:18.953Z,28.80
2018-11-21T18:07:47.157Z,27.73
2018-11-21T18:10:16.748Z,24.67
2018-11-21T18:12:45.524Z,24.72
2018-11-21T18:15:14.531Z,27.30
2018-11-21T18:17:43.633Z,25.02
2018-11-21T18:20:12.547Z,28.05
2018-11-21T18:22:41.247Z,29.30
2018-11-21T18:25:11.843Z,27.48
2018-11-21T18:27:40.447Z,29.25
2018-11-21T18:30:14.094Z,29.37
2018-11-21T18:32:43.287Z,27.00
2018-11-21T18:35:13.111Z,25.37
2018-11-21T18:37:41.302Z,26.68
2018-11-21T18:40:11.869Z,26.65
2018-11-21T18:42:40.162Z,26.77
2018-11-21T18:45:10.972Z,26.17
2018-11-21T18:47:39.256Z,27.22
2018-11-21T18:50:11.140Z,24.52
2018-11-21T18:52:37.763Z,25.40
2018-11-21T18:55:08.839Z,27.37
2018-11-21T18:58:16.332Z,26.07
2018-11-21T19:00:47.486Z,23.65
2018-11-21T19:03:16.744Z,26.00
2018-11-21T19:05:43.852Z,27.87
2018-11-21T19:08:11.991Z,27.22
2018-11-21T19:10:40.513Z,28.70
2018-11-21T19:13:08.918Z,26.45
2018-11-21T19:15:37.419Z,28.35
2018-11-21T19:18:06.404Z,27.32
2018-11-21T19:20:35.320Z,27.93
2018-11-21T19:23:03.603Z,26.40
2018-11-21T19:25:32.029Z,30.43
2018-11-21T19:28:00.545Z,27.55
2018-11-21T19:30:28.786Z,28.27
2018-11-21T19:32:56.871Z,26.37
2018-11-21T19:35:25.399Z,26.97
2018-11-21T19:37:53.551Z,27.48
2018-11-21T19:40:21.778Z,26.42
2018-11-21T19:42:49.999Z,27.52
2018-11-21T19:45:18.208Z,28.35
2018-11-21T19:47:46.764Z,29.63
2018-11-21T19:50:16.418Z,28.32
2018-11-21T19:52:45.790Z,28.25
2018-11-21T19:55:16.027Z,28.00
2018-11-21T19:57:44.764Z,28.00
2018-11-21T20:00:15.853Z,28.62
2018-11-21T20:02:44.195Z,27.02
2018-11-21T20:05:12.610Z,27.85
2018-11-21T20:07:41.330Z,34.63
2018-11-21T20:10:10.562Z,29.60
2018-11-21T20:12:40.044Z,31.30
2018-11-21T20:15:10.169Z,30.02
2018-11-21T20:17:38.289Z,29.15
2018-11-21T20:20:09.093Z,30.50
2018-11-21T20:22:39.191Z,28.35
2018-11-21T20:25:09.348Z,29.18
2018-11-21T20:27:37.552Z,32.15
2018-11-21T20:30:09.301Z,32.50
2018-11-21T20:32:37.540Z,30.77
2018-11-21T20:35:07.945Z,27.82
2018-11-21T20:37:34.792Z,31.95
2018-11-21T20:40:03.296Z,31.35
2018-11-21T20:42:31.940Z,28.87
2018-11-21T20:45:00.444Z,29.70
2018-11-21T20:47:28.921Z,29.32
2018-11-21T20:49:57.294Z,27.13
2018-11-21T20:52:25.661Z,30.08
2018-11-21T20:54:54.155Z,31.07
2018-11-21T20:57:22.781Z,30.80
2018-11-21T20:59:51.360Z,31.80
2018-11-21T21:02:19.702Z,32.53
2018-11-21T21:04:48.073Z,34.23
2018-11-21T21:07:22.318Z,26.05
2018-11-21T21:09:45.865Z,29.23
2018-11-21T21:12:14.354Z,31.25
2018-11-21T21:14:42.862Z,32.50
2018-11-21T21:17:11.408Z,29.20
2018-11-21T21:19:39.727Z,30.70
2018-11-21T21:22:08.278Z,30.92
2018-11-21T21:24:36.850Z,31.17
2018-11-21T21:27:05.613Z,26.00
2018-11-21T21:29:33.747Z,29.25
2018-11-21T21:32:02.010Z,30.25
2018-11-21T21:34:30.245Z,27.90
2018-11-21T21:36:58.418Z,31.12
2018-11-21T21:39:26.613Z,28.65
2018-11-21T21:41:54.763Z,28.70
2018-11-21T21:44:22.982Z,30.62
2018-11-21T21:46:51.351Z,31.90
2018-11-21T21:49:19.851Z,32.58
2018-11-21T21:51:48.350Z,29.07
2018-11-21T21:54:16.733Z,30.30
2018-11-21T21:56:45.220Z,28.12
2018-11-21T21:59:13.781Z,31.15
2018-11-21T22:01:42.055Z,29.32
2018-11-21T22:04:10.248Z,27.40
2018-11-21T22:06:38.397Z,25.40
2018-11-21T22:09:09.392Z,30.32
